Schenectady, NY (12306)

8:59 AM EDT on July 29, 2016 (GMT -0400)
West Hill | | Change Station

Elev 627 ft 42.82 °N, 74.01 °W | Updated 11 seconds ago

Mostly Cloudy
Mostly Cloudy
70.5 °F
Feels Like 70.5 °F
N
0.0
Wind Variable Wind from WSW
Gusts 0.0 mph

Today
High -- | Low -- °F
--% Chance of Precip.
Yesterday
High -- | Low -- °F
Precip. -- in
Pressure 29.91 in
Visibility 15.0 miles
Clouds Mostly Cloudy 4800 ft
Dew Point 70 °F
Humidity 98%
Rainfall 0.43 in
Snow Depth Not available.
5:44 AM 8:19 PM
Waning Crescent, 22% visible
METAR KSCH 291245Z 02006KT 15SM BKN048 23/18 A2991
Pressure 29.91 in
Visibility 15.0 miles
Clouds Mostly Cloudy 4800 ft
Dew Point 70 °F
Humidity 98%
Rainfall 0.43 in
Snow Depth Not available.
5:44 AM 8:19 PM
Waning Crescent, 22% visible
METAR KSCH 291245Z 02006KT 15SM BKN048 23/18 A2991

10-Day Weather Forecast

Almanac

Astronomy

Jul. 29, 2016 Rise Set
Actual Time
Civil Twilight
Nautical Twilight
Astronomical Twilight
Moon
Length of Visible Light
Length of Day
Tomorrow will be .
, % of the Moon is Illuminated

Today's Extremes

State Highs State Lows

Community

WunderPhotos

Upload Photos

1,928,335 photos uploaded!

WunderBlog® & News

Nearby

Air Quality

  Air Quality AQ Index Pollutant
Not available.

Snow Depth

Station Depth Elevation

Earthquake Activity

City Distance Mag. Time & Date
Minimum magnitude displayed is 2.5.

Coastal Water Temperatures

Place Temperature

Stations

Nearby Weather Stations

Station Location Temp. Windchill Dew Point Humidity Wind Precip. Elev Updated Type
                   

Watches & Warnings

There are currently no watches in effect.